Decoded Metar for KMAW ( in ) (IATA:) | Meteo·Mobile Aviation Weather
aviador You're here:

KMAW Decoded Metar

in
Report Time2018-08-22 01:15:00
UTC Time2018-08-22 01:29:09
Flight Rules vfr VFR
Wind320° at 04 kt
W.Decomp.*RWY 32: 4.0 kt HW 0 kt LCW
RWY 36: 3.1 kt HW 2.6 kt LCW
W.Rank320° ranks 21
Current wind is below 320° avg. (7.5)
Visibility9999 m
Phenomena:N/A
Clouds:N/A
Expected CloudBase > 1,600 ft AGL from Temp-Dew spread
CeilingNone
Temp23°C
Dew Point19°C (78% RH)
QNH1018 hPa
Raw Report
KMAW 220115Z AUTO 32004KT 10SM CLR 23/19 A3005 RMK AO2=

Extra information for KMAW:More info

Social comments